sensor_id;sensor_type;location;lat;lon;timestamp;P1;durP1;ratioP1;P2;durP2;ratioP2
46731;SDS011;32477;51.474;5.696;2023-05-10T00:01:04;20.08;;;8.40;;
46731;SDS011;32477;51.474;5.696;2023-05-10T00:03:30;16.42;;;9.02;;
46731;SDS011;32477;51.474;5.696;2023-05-10T00:05:56;20.83;;;9.23;;
46731;SDS011;32477;51.474;5.696;2023-05-10T00:08:21;18.98;;;8.80;;
46731;SDS011;32477;51.474;5.696;2023-05-10T00:10:47;24.08;;;10.23;;
46731;SDS011;32477;51.474;5.696;2023-05-10T00:13:13;25.38;;;10.82;;
46731;SDS011;32477;51.474;5.696;2023-05-10T00:15:39;25.55;;;10.60;;
46731;SDS011;32477;51.474;5.696;2023-05-10T00:18:04;23.83;;;11.75;;
46731;SDS011;32477;51.474;5.696;2023-05-10T00:20:30;27.50;;;11.68;;
46731;SDS011;32477;51.474;5.696;2023-05-10T00:22:55;28.65;;;12.10;;
46731;SDS011;32477;51.474;5.696;2023-05-10T00:25:21;32.00;;;12.05;;
46731;SDS011;32477;51.474;5.696;2023-05-10T00:27:47;26.67;;;12.13;;
46731;SDS011;32477;51.474;5.696;2023-05-10T00:30:13;32.33;;;13.10;;
46731;SDS011;32477;51.474;5.696;2023-05-10T00:32:38;34.03;;;13.25;;
46731;SDS011;32477;51.474;5.696;2023-05-10T00:35:04;32.10;;;12.48;;
46731;SDS011;32477;51.474;5.696;2023-05-10T00:37:30;34.60;;;14.07;;
46731;SDS011;32477;51.474;5.696;2023-05-10T00:39:56;32.13;;;12.30;;
46731;SDS011;32477;51.474;5.696;2023-05-10T00:42:21;33.90;;;14.27;;
46731;SDS011;32477;51.474;5.696;2023-05-10T00:44:47;36.95;;;14.85;;
46731;SDS011;32477;51.474;5.696;2023-05-10T00:47:13;40.13;;;14.25;;
46731;SDS011;32477;51.474;5.696;2023-05-10T00:49:39;36.22;;;14.68;;
46731;SDS011;32477;51.474;5.696;2023-05-10T00:52:05;35.35;;;14.63;;
46731;SDS011;32477;51.474;5.696;2023-05-10T00:54:31;37.83;;;14.57;;
46731;SDS011;32477;51.474;5.696;2023-05-10T00:56:57;37.63;;;15.25;;
46731;SDS011;32477;51.474;5.696;2023-05-10T00:59:23;50.00;;;18.60;;
46731;SDS011;32477;51.474;5.696;2023-05-10T01:01:49;44.53;;;17.40;;
46731;SDS011;32477;51.474;5.696;2023-05-10T01:04:16;46.50;;;17.30;;
46731;SDS011;32477;51.474;5.696;2023-05-10T01:06:42;71.72;;;20.70;;
46731;SDS011;32477;51.474;5.696;2023-05-10T01:09:08;50.70;;;19.35;;
46731;SDS011;32477;51.474;5.696;2023-05-10T01:11:35;55.05;;;21.33;;
46731;SDS011;32477;51.474;5.696;2023-05-10T01:14:03;63.28;;;21.10;;
46731;SDS011;32477;51.474;5.696;2023-05-10T01:16:32;75.63;;;22.15;;
46731;SDS011;32477;51.474;5.696;2023-05-10T01:19:05;67.13;;;22.80;;
46731;SDS011;32477;51.474;5.696;2023-05-10T01:21:43;80.25;;;24.27;;
46731;SDS011;32477;51.474;5.696;2023-05-10T01:24:19;77.40;;;23.13;;
46731;SDS011;32477;51.474;5.696;2023-05-10T01:33:11;87.32;;;25.27;;
46731;SDS011;32477;51.474;5.696;2023-05-10T01:35:43;83.28;;;24.23;;
46731;SDS011;32477;51.474;5.696;2023-05-10T01:38:32;89.45;;;26.60;;
46731;SDS011;32477;51.474;5.696;2023-05-10T01:44:14;98.75;;;27.63;;
46731;SDS011;32477;51.474;5.696;2023-05-10T01:46:40;143.02;;;34.63;;
46731;SDS011;32477;51.474;5.696;2023-05-10T01:49:11;145.68;;;36.03;;
46731;SDS011;32477;51.474;5.696;2023-05-10T01:51:46;126.50;;;33.92;;
46731;SDS011;32477;51.474;5.696;2023-05-10T01:54:16;140.52;;;34.55;;
46731;SDS011;32477;51.474;5.696;2023-05-10T01:56:44;141.00;;;34.13;;
46731;SDS011;32477;51.474;5.696;2023-05-10T01:59:15;160.25;;;36.15;;
46731;SDS011;32477;51.474;5.696;2023-05-10T02:01:43;157.52;;;36.13;;
46731;SDS011;32477;51.474;5.696;2023-05-10T02:04:11;152.43;;;35.17;;
46731;SDS011;32477;51.474;5.696;2023-05-10T02:06:41;134.38;;;34.47;;
46731;SDS011;32477;51.474;5.696;2023-05-10T02:09:09;143.52;;;35.75;;
46731;SDS011;32477;51.474;5.696;2023-05-10T02:11:37;120.90;;;33.30;;
46731;SDS011;32477;51.474;5.696;2023-05-10T02:14:05;135.95;;;34.22;;
46731;SDS011;32477;51.474;5.696;2023-05-10T02:16:34;129.75;;;34.38;;
46731;SDS011;32477;51.474;5.696;2023-05-10T02:19:01;146.68;;;37.30;;
46731;SDS011;32477;51.474;5.696;2023-05-10T02:21:28;143.15;;;37.70;;
46731;SDS011;32477;51.474;5.696;2023-05-10T02:23:55;136.48;;;35.42;;
46731;SDS011;32477;51.474;5.696;2023-05-10T02:26:23;146.43;;;37.25;;
46731;SDS011;32477;51.474;5.696;2023-05-10T02:28:51;140.18;;;35.20;;
46731;SDS011;32477;51.474;5.696;2023-05-10T02:31:18;152.32;;;38.50;;
46731;SDS011;32477;51.474;5.696;2023-05-10T02:33:44;146.57;;;39.05;;
46731;SDS011;32477;51.474;5.696;2023-05-10T02:36:11;146.23;;;41.42;;
46731;SDS011;32477;51.474;5.696;2023-05-10T02:38:38;145.55;;;39.58;;
46731;SDS011;32477;51.474;5.696;2023-05-10T02:41:04;146.57;;;41.00;;
46731;SDS011;32477;51.474;5.696;2023-05-10T02:43:33;154.05;;;42.08;;
46731;SDS011;32477;51.474;5.696;2023-05-10T02:46:00;157.88;;;39.63;;
46731;SDS011;32477;51.474;5.696;2023-05-10T02:48:26;148.20;;;42.03;;
46731;SDS011;32477;51.474;5.696;2023-05-10T02:50:52;148.00;;;39.10;;
46731;SDS011;32477;51.474;5.696;2023-05-10T02:53:22;131.85;;;40.13;;
46731;SDS011;32477;51.474;5.696;2023-05-10T02:55:52;139.68;;;41.22;;
46731;SDS011;32477;51.474;5.696;2023-05-10T02:58:21;140.20;;;39.85;;
46731;SDS011;32477;51.474;5.696;2023-05-10T03:00:47;128.45;;;39.78;;
46731;SDS011;32477;51.474;5.696;2023-05-10T03:03:13;141.10;;;40.33;;
46731;SDS011;32477;51.474;5.696;2023-05-10T03:05:38;129.38;;;39.58;;
46731;SDS011;32477;51.474;5.696;2023-05-10T03:08:04;139.80;;;39.60;;
46731;SDS011;32477;51.474;5.696;2023-05-10T03:10:31;125.97;;;39.05;;
46731;SDS011;32477;51.474;5.696;2023-05-10T03:15:57;142.48;;;41.80;;
46731;SDS011;32477;51.474;5.696;2023-05-10T03:21:04;136.75;;;41.42;;
46731;SDS011;32477;51.474;5.696;2023-05-10T03:26:24;152.02;;;41.97;;
46731;SDS011;32477;51.474;5.696;2023-05-10T03:28:51;127.97;;;39.30;;
46731;SDS011;32477;51.474;5.696;2023-05-10T03:31:18;131.98;;;40.30;;
46731;SDS011;32477;51.474;5.696;2023-05-10T03:33:47;130.73;;;40.90;;
46731;SDS011;32477;51.474;5.696;2023-05-10T03:36:14;132.55;;;39.85;;
46731;SDS011;32477;51.474;5.696;2023-05-10T03:38:40;142.85;;;39.60;;
46731;SDS011;32477;51.474;5.696;2023-05-10T03:41:05;121.88;;;41.35;;
46731;SDS011;32477;51.474;5.696;2023-05-10T03:43:31;131.05;;;41.13;;
46731;SDS011;32477;51.474;5.696;2023-05-10T03:45:57;122.82;;;39.40;;
46731;SDS011;32477;51.474;5.696;2023-05-10T03:48:22;133.32;;;40.42;;
46731;SDS011;32477;51.474;5.696;2023-05-10T03:50:48;136.43;;;40.97;;
46731;SDS011;32477;51.474;5.696;2023-05-10T03:53:14;127.22;;;40.53;;
46731;SDS011;32477;51.474;5.696;2023-05-10T03:55:40;126.95;;;40.05;;
46731;SDS011;32477;51.474;5.696;2023-05-10T03:58:06;127.18;;;39.08;;
46731;SDS011;32477;51.474;5.696;2023-05-10T04:00:35;122.45;;;41.00;;
46731;SDS011;32477;51.474;5.696;2023-05-10T04:03:00;116.68;;;38.45;;
46731;SDS011;32477;51.474;5.696;2023-05-10T04:05:26;115.03;;;38.25;;
46731;SDS011;32477;51.474;5.696;2023-05-10T04:07:52;104.63;;;37.25;;
46731;SDS011;32477;51.474;5.696;2023-05-10T04:10:17;105.97;;;38.40;;
46731;SDS011;32477;51.474;5.696;2023-05-10T04:12:43;109.20;;;37.50;;
46731;SDS011;32477;51.474;5.696;2023-05-10T04:15:09;108.03;;;34.90;;
46731;SDS011;32477;51.474;5.696;2023-05-10T04:17:35;111.25;;;35.72;;
46731;SDS011;32477;51.474;5.696;2023-05-10T04:20:00;104.70;;;36.40;;
46731;SDS011;32477;51.474;5.696;2023-05-10T04:22:26;87.75;;;35.15;;
46731;SDS011;32477;51.474;5.696;2023-05-10T04:24:54;104.10;;;37.50;;
46731;SDS011;32477;51.474;5.696;2023-05-10T04:27:19;108.85;;;36.78;;
46731;SDS011;32477;51.474;5.696;2023-05-10T04:29:45;116.55;;;36.40;;
46731;SDS011;32477;51.474;5.696;2023-05-10T04:32:11;108.10;;;38.35;;
46731;SDS011;32477;51.474;5.696;2023-05-10T04:34:36;91.53;;;34.58;;
46731;SDS011;32477;51.474;5.696;2023-05-10T04:37:02;116.70;;;36.97;;
46731;SDS011;32477;51.474;5.696;2023-05-10T04:39:28;119.82;;;37.17;;
46731;SDS011;32477;51.474;5.696;2023-05-10T04:41:54;113.50;;;36.63;;
46731;SDS011;32477;51.474;5.696;2023-05-10T04:44:19;114.68;;;37.22;;
46731;SDS011;32477;51.474;5.696;2023-05-10T04:46:45;117.10;;;38.60;;
46731;SDS011;32477;51.474;5.696;2023-05-10T04:49:11;115.72;;;38.42;;
46731;SDS011;32477;51.474;5.696;2023-05-10T04:51:36;125.80;;;38.58;;
46731;SDS011;32477;51.474;5.696;2023-05-10T04:54:02;116.07;;;36.20;;
46731;SDS011;32477;51.474;5.696;2023-05-10T04:56:28;146.48;;;39.80;;
46731;SDS011;32477;51.474;5.696;2023-05-10T04:58:54;136.57;;;38.30;;
46731;SDS011;32477;51.474;5.696;2023-05-10T05:01:19;141.27;;;40.28;;
46731;SDS011;32477;51.474;5.696;2023-05-10T05:03:45;159.27;;;42.75;;
46731;SDS011;32477;51.474;5.696;2023-05-10T05:06:11;163.18;;;44.08;;
46731;SDS011;32477;51.474;5.696;2023-05-10T05:08:36;176.05;;;47.90;;
46731;SDS011;32477;51.474;5.696;2023-05-10T05:11:02;165.50;;;49.45;;
46731;SDS011;32477;51.474;5.696;2023-05-10T05:13:28;159.35;;;45.63;;
46731;SDS011;32477;51.474;5.696;2023-05-10T05:15:54;160.73;;;46.03;;
46731;SDS011;32477;51.474;5.696;2023-05-10T05:18:20;143.38;;;45.92;;
46731;SDS011;32477;51.474;5.696;2023-05-10T05:20:46;145.30;;;47.58;;
46731;SDS011;32477;51.474;5.696;2023-05-10T05:23:11;147.93;;;46.47;;
46731;SDS011;32477;51.474;5.696;2023-05-10T05:25:37;132.55;;;40.95;;
46731;SDS011;32477;51.474;5.696;2023-05-10T05:28:03;133.88;;;42.47;;
46731;SDS011;32477;51.474;5.696;2023-05-10T05:30:29;112.40;;;39.97;;
46731;SDS011;32477;51.474;5.696;2023-05-10T05:32:54;121.32;;;38.35;;
46731;SDS011;32477;51.474;5.696;2023-05-10T05:35:20;105.18;;;38.65;;
46731;SDS011;32477;51.474;5.696;2023-05-10T05:37:46;107.45;;;36.67;;
46731;SDS011;32477;51.474;5.696;2023-05-10T05:40:14;94.18;;;34.33;;
46731;SDS011;32477;51.474;5.696;2023-05-10T05:42:40;90.72;;;34.92;;
46731;SDS011;32477;51.474;5.696;2023-05-10T05:45:06;102.15;;;33.40;;
46731;SDS011;32477;51.474;5.696;2023-05-10T05:47:33;89.07;;;33.60;;
46731;SDS011;32477;51.474;5.696;2023-05-10T05:49:59;77.03;;;33.03;;
46731;SDS011;32477;51.474;5.696;2023-05-10T05:52:25;75.22;;;31.67;;
46731;SDS011;32477;51.474;5.696;2023-05-10T05:54:50;75.53;;;31.83;;
46731;SDS011;32477;51.474;5.696;2023-05-10T05:57:16;82.03;;;31.63;;
46731;SDS011;32477;51.474;5.696;2023-05-10T05:59:42;75.78;;;32.80;;
46731;SDS011;32477;51.474;5.696;2023-05-10T06:02:09;81.57;;;31.52;;
46731;SDS011;32477;51.474;5.696;2023-05-10T06:04:35;70.78;;;29.90;;
46731;SDS011;32477;51.474;5.696;2023-05-10T06:07:00;66.70;;;28.55;;
46731;SDS011;32477;51.474;5.696;2023-05-10T06:09:26;84.43;;;33.38;;
46731;SDS011;32477;51.474;5.696;2023-05-10T06:11:52;63.30;;;28.98;;
46731;SDS011;32477;51.474;5.696;2023-05-10T06:14:19;61.72;;;28.08;;
46731;SDS011;32477;51.474;5.696;2023-05-10T06:16:45;56.75;;;27.17;;
46731;SDS011;32477;51.474;5.696;2023-05-10T06:19:11;59.05;;;26.15;;
46731;SDS011;32477;51.474;5.696;2023-05-10T06:21:37;59.55;;;27.20;;
46731;SDS011;32477;51.474;5.696;2023-05-10T06:24:02;52.70;;;25.38;;
46731;SDS011;32477;51.474;5.696;2023-05-10T06:26:28;54.63;;;23.58;;
46731;SDS011;32477;51.474;5.696;2023-05-10T06:28:54;46.67;;;22.48;;
46731;SDS011;32477;51.474;5.696;2023-05-10T06:31:20;49.38;;;23.42;;
46731;SDS011;32477;51.474;5.696;2023-05-10T06:33:46;45.63;;;21.27;;
46731;SDS011;32477;51.474;5.696;2023-05-10T06:36:11;50.53;;;22.05;;
46731;SDS011;32477;51.474;5.696;2023-05-10T06:38:38;43.10;;;21.55;;
46731;SDS011;32477;51.474;5.696;2023-05-10T06:41:04;47.40;;;22.05;;
46731;SDS011;32477;51.474;5.696;2023-05-10T06:43:29;48.65;;;22.35;;
46731;SDS011;32477;51.474;5.696;2023-05-10T06:45:55;39.97;;;21.80;;
46731;SDS011;32477;51.474;5.696;2023-05-10T06:48:20;44.45;;;20.80;;
46731;SDS011;32477;51.474;5.696;2023-05-10T06:50:46;44.05;;;20.98;;
46731;SDS011;32477;51.474;5.696;2023-05-10T06:53:12;36.22;;;19.92;;
46731;SDS011;32477;51.474;5.696;2023-05-10T06:55:38;45.60;;;21.67;;
46731;SDS011;32477;51.474;5.696;2023-05-10T06:58:04;40.83;;;20.45;;
46731;SDS011;32477;51.474;5.696;2023-05-10T07:00:30;38.65;;;20.60;;
46731;SDS011;32477;51.474;5.696;2023-05-10T07:02:55;52.17;;;21.83;;
46731;SDS011;32477;51.474;5.696;2023-05-10T07:05:21;39.63;;;21.45;;
46731;SDS011;32477;51.474;5.696;2023-05-10T07:07:47;37.03;;;19.20;;
46731;SDS011;32477;51.474;5.696;2023-05-10T07:10:12;48.03;;;21.83;;
46731;SDS011;32477;51.474;5.696;2023-05-10T07:12:38;40.15;;;20.80;;
46731;SDS011;32477;51.474;5.696;2023-05-10T07:15:04;41.92;;;20.17;;
46731;SDS011;32477;51.474;5.696;2023-05-10T07:17:30;39.28;;;21.52;;
46731;SDS011;32477;51.474;5.696;2023-05-10T07:19:56;41.25;;;21.85;;
46731;SDS011;32477;51.474;5.696;2023-05-10T07:22:21;40.28;;;19.58;;
46731;SDS011;32477;51.474;5.696;2023-05-10T07:24:47;42.63;;;21.90;;
46731;SDS011;32477;51.474;5.696;2023-05-10T07:27:13;39.83;;;21.98;;
46731;SDS011;32477;51.474;5.696;2023-05-10T07:29:39;44.75;;;21.92;;
46731;SDS011;32477;51.474;5.696;2023-05-10T07:32:07;39.90;;;20.73;;
46731;SDS011;32477;51.474;5.696;2023-05-10T07:34:33;44.70;;;23.75;;
46731;SDS011;32477;51.474;5.696;2023-05-10T07:36:58;44.90;;;21.90;;
46731;SDS011;32477;51.474;5.696;2023-05-10T07:39:24;39.75;;;22.05;;
46731;SDS011;32477;51.474;5.696;2023-05-10T07:41:51;44.65;;;22.40;;
46731;SDS011;32477;51.474;5.696;2023-05-10T07:44:16;40.25;;;21.98;;
46731;SDS011;32477;51.474;5.696;2023-05-10T07:46:44;50.70;;;24.88;;
46731;SDS011;32477;51.474;5.696;2023-05-10T07:49:09;44.63;;;22.40;;
46731;SDS011;32477;51.474;5.696;2023-05-10T07:51:35;43.17;;;21.98;;
46731;SDS011;32477;51.474;5.696;2023-05-10T07:54:00;46.67;;;23.70;;
46731;SDS011;32477;51.474;5.696;2023-05-10T07:56:28;37.75;;;22.17;;
46731;SDS011;32477;51.474;5.696;2023-05-10T07:58:55;41.13;;;22.95;;
46731;SDS011;32477;51.474;5.696;2023-05-10T08:01:21;40.10;;;20.40;;
46731;SDS011;32477;51.474;5.696;2023-05-10T08:03:48;41.80;;;20.98;;
46731;SDS011;32477;51.474;5.696;2023-05-10T08:06:14;33.40;;;20.83;;
46731;SDS011;32477;51.474;5.696;2023-05-10T08:08:40;38.78;;;22.30;;
46731;SDS011;32477;51.474;5.696;2023-05-10T08:11:06;40.60;;;22.52;;
46731;SDS011;32477;51.474;5.696;2023-05-10T08:13:32;36.63;;;20.73;;
46731;SDS011;32477;51.474;5.696;2023-05-10T08:15:58;41.05;;;21.42;;
46731;SDS011;32477;51.474;5.696;2023-05-10T08:18:23;43.90;;;21.10;;
46731;SDS011;32477;51.474;5.696;2023-05-10T08:20:49;32.58;;;19.00;;
46731;SDS011;32477;51.474;5.696;2023-05-10T08:23:15;43.00;;;19.38;;
46731;SDS011;32477;51.474;5.696;2023-05-10T08:25:41;39.78;;;19.55;;
46731;SDS011;32477;51.474;5.696;2023-05-10T08:28:06;42.30;;;18.77;;
46731;SDS011;32477;51.474;5.696;2023-05-10T08:30:32;28.40;;;16.58;;
46731;SDS011;32477;51.474;5.696;2023-05-10T08:32:58;35.63;;;16.83;;
46731;SDS011;32477;51.474;5.696;2023-05-10T08:35:23;27.30;;;15.63;;
46731;SDS011;32477;51.474;5.696;2023-05-10T08:37:50;29.27;;;14.95;;
46731;SDS011;32477;51.474;5.696;2023-05-10T08:40:16;30.58;;;15.20;;
46731;SDS011;32477;51.474;5.696;2023-05-10T08:42:47;34.85;;;14.45;;
46731;SDS011;32477;51.474;5.696;2023-05-10T08:45:37;27.77;;;12.93;;
46731;SDS011;32477;51.474;5.696;2023-05-10T08:48:08;20.42;;;12.40;;
46731;SDS011;32477;51.474;5.696;2023-05-10T08:50:38;23.95;;;12.02;;
46731;SDS011;32477;51.474;5.696;2023-05-10T08:53:06;16.13;;;9.32;;
46731;SDS011;32477;51.474;5.696;2023-05-10T08:55:35;23.17;;;8.85;;
46731;SDS011;32477;51.474;5.696;2023-05-10T08:58:03;18.02;;;8.75;;
46731;SDS011;32477;51.474;5.696;2023-05-10T09:00:29;17.95;;;8.02;;
46731;SDS011;32477;51.474;5.696;2023-05-10T09:02:57;13.35;;;7.47;;
46731;SDS011;32477;51.474;5.696;2023-05-10T09:05:23;14.45;;;7.40;;
46731;SDS011;32477;51.474;5.696;2023-05-10T09:07:49;13.32;;;6.95;;
46731;SDS011;32477;51.474;5.696;2023-05-10T09:10:15;16.20;;;6.63;;
46731;SDS011;32477;51.474;5.696;2023-05-10T09:12:41;15.88;;;6.85;;
46731;SDS011;32477;51.474;5.696;2023-05-10T09:15:09;12.18;;;8.13;;
46731;SDS011;32477;51.474;5.696;2023-05-10T09:17:35;9.85;;;6.32;;
46731;SDS011;32477;51.474;5.696;2023-05-10T09:20:03;16.33;;;7.10;;
46731;SDS011;32477;51.474;5.696;2023-05-10T09:22:30;12.05;;;6.53;;
46731;SDS011;32477;51.474;5.696;2023-05-10T09:25:12;12.07;;;7.05;;
46731;SDS011;32477;51.474;5.696;2023-05-10T09:27:40;12.05;;;6.03;;
46731;SDS011;32477;51.474;5.696;2023-05-10T09:30:09;13.55;;;6.07;;
46731;SDS011;32477;51.474;5.696;2023-05-10T09:35:09;11.05;;;6.53;;
46731;SDS011;32477;51.474;5.696;2023-05-10T09:37:36;13.80;;;7.15;;
46731;SDS011;32477;51.474;5.696;2023-05-10T09:40:04;13.38;;;7.05;;
46731;SDS011;32477;51.474;5.696;2023-05-10T09:42:31;13.30;;;7.18;;
46731;SDS011;32477;51.474;5.696;2023-05-10T09:45:03;12.68;;;7.47;;
46731;SDS011;32477;51.474;5.696;2023-05-10T09:47:33;11.48;;;5.75;;
46731;SDS011;32477;51.474;5.696;2023-05-10T09:50:00;10.30;;;5.80;;
46731;SDS011;32477;51.474;5.696;2023-05-10T09:52:51;8.70;;;5.55;;
46731;SDS011;32477;51.474;5.696;2023-05-10T09:55:17;7.03;;;4.78;;
46731;SDS011;32477;51.474;5.696;2023-05-10T09:57:45;8.95;;;4.55;;
46731;SDS011;32477;51.474;5.696;2023-05-10T10:00:16;6.20;;;4.32;;
46731;SDS011;32477;51.474;5.696;2023-05-10T10:02:45;12.85;;;4.28;;
46731;SDS011;32477;51.474;5.696;2023-05-10T10:05:13;7.30;;;3.75;;
46731;SDS011;32477;51.474;5.696;2023-05-10T10:07:39;10.18;;;3.75;;
46731;SDS011;32477;51.474;5.696;2023-05-10T10:10:05;7.63;;;3.97;;
46731;SDS011;32477;51.474;5.696;2023-05-10T10:12:36;7.55;;;4.13;;
46731;SDS011;32477;51.474;5.696;2023-05-10T10:15:02;8.95;;;4.88;;
46731;SDS011;32477;51.474;5.696;2023-05-10T10:17:29;10.38;;;5.03;;
46731;SDS011;32477;51.474;5.696;2023-05-10T10:19:57;14.48;;;6.28;;
46731;SDS011;32477;51.474;5.696;2023-05-10T10:22:23;14.30;;;6.47;;
46731;SDS011;32477;51.474;5.696;2023-05-10T10:24:49;12.25;;;7.70;;
46731;SDS011;32477;51.474;5.696;2023-05-10T10:27:20;11.18;;;7.10;;
46731;SDS011;32477;51.474;5.696;2023-05-10T10:30:05;14.20;;;8.10;;
46731;SDS011;32477;51.474;5.696;2023-05-10T10:33:18;13.00;;;7.60;;
46731;SDS011;32477;51.474;5.696;2023-05-10T10:35:35;16.42;;;9.85;;
46731;SDS011;32477;51.474;5.696;2023-05-10T10:38:01;16.58;;;8.23;;
46731;SDS011;32477;51.474;5.696;2023-05-10T10:40:28;12.02;;;8.55;;
46731;SDS011;32477;51.474;5.696;2023-05-10T10:42:55;11.63;;;7.95;;
46731;SDS011;32477;51.474;5.696;2023-05-10T10:45:22;11.65;;;7.50;;
46731;SDS011;32477;51.474;5.696;2023-05-10T10:47:53;12.70;;;8.20;;
46731;SDS011;32477;51.474;5.696;2023-05-10T10:50:47;10.82;;;7.72;;
46731;SDS011;32477;51.474;5.696;2023-05-10T10:53:21;12.82;;;7.70;;
46731;SDS011;32477;51.474;5.696;2023-05-10T10:55:48;15.35;;;7.78;;
46731;SDS011;32477;51.474;5.696;2023-05-10T10:58:29;11.07;;;7.20;;
46731;SDS011;32477;51.474;5.696;2023-05-10T11:01:14;9.05;;;6.93;;
46731;SDS011;32477;51.474;5.696;2023-05-10T11:03:54;11.80;;;6.35;;
46731;SDS011;32477;51.474;5.696;2023-05-10T11:06:46;10.98;;;6.63;;
46731;SDS011;32477;51.474;5.696;2023-05-10T11:09:12;8.13;;;5.95;;
46731;SDS011;32477;51.474;5.696;2023-05-10T11:11:56;9.35;;;6.65;;
46731;SDS011;32477;51.474;5.696;2023-05-10T11:14:23;11.68;;;6.22;;
46731;SDS011;32477;51.474;5.696;2023-05-10T11:16:49;7.32;;;5.30;;
46731;SDS011;32477;51.474;5.696;2023-05-10T11:19:15;8.48;;;6.05;;
46731;SDS011;32477;51.474;5.696;2023-05-10T11:24:38;13.00;;;5.43;;
46731;SDS011;32477;51.474;5.696;2023-05-10T11:27:05;11.05;;;6.45;;
46731;SDS011;32477;51.474;5.696;2023-05-10T11:29:31;9.35;;;5.97;;
46731;SDS011;32477;51.474;5.696;2023-05-10T11:31:57;11.63;;;8.85;;
46731;SDS011;32477;51.474;5.696;2023-05-10T11:34:30;15.32;;;10.30;;
46731;SDS011;32477;51.474;5.696;2023-05-10T11:37:00;17.38;;;12.60;;
46731;SDS011;32477;51.474;5.696;2023-05-10T11:39:26;19.65;;;13.23;;
46731;SDS011;32477;51.474;5.696;2023-05-10T11:41:53;20.92;;;13.90;;
46731;SDS011;32477;51.474;5.696;2023-05-10T11:44:19;17.40;;;12.68;;
46731;SDS011;32477;51.474;5.696;2023-05-10T11:46:45;17.10;;;11.85;;
46731;SDS011;32477;51.474;5.696;2023-05-10T11:49:11;17.63;;;11.60;;
46731;SDS011;32477;51.474;5.696;2023-05-10T11:51:38;13.90;;;10.65;;
46731;SDS011;32477;51.474;5.696;2023-05-10T11:54:09;20.95;;;12.15;;
46731;SDS011;32477;51.474;5.696;2023-05-10T11:56:36;18.30;;;11.35;;
46731;SDS011;32477;51.474;5.696;2023-05-10T11:59:05;15.32;;;10.02;;
46731;SDS011;32477;51.474;5.696;2023-05-10T12:01:31;15.93;;;11.57;;
46731;SDS011;32477;51.474;5.696;2023-05-10T12:03:58;17.75;;;11.32;;
46731;SDS011;32477;51.474;5.696;2023-05-10T12:06:29;17.65;;;10.70;;
46731;SDS011;32477;51.474;5.696;2023-05-10T12:08:56;18.25;;;10.88;;
46731;SDS011;32477;51.474;5.696;2023-05-10T12:11:24;18.50;;;11.10;;
46731;SDS011;32477;51.474;5.696;2023-05-10T12:13:52;15.25;;;10.30;;
46731;SDS011;32477;51.474;5.696;2023-05-10T12:16:19;18.20;;;11.23;;
46731;SDS011;32477;51.474;5.696;2023-05-10T12:18:50;17.05;;;13.00;;
46731;SDS011;32477;51.474;5.696;2023-05-10T12:21:16;19.75;;;13.25;;
46731;SDS011;32477;51.474;5.696;2023-05-10T12:23:43;15.90;;;11.98;;
46731;SDS011;32477;51.474;5.696;2023-05-10T12:26:11;15.90;;;10.63;;
46731;SDS011;32477;51.474;5.696;2023-05-10T12:28:37;15.27;;;10.68;;
46731;SDS011;32477;51.474;5.696;2023-05-10T12:31:04;17.27;;;12.00;;
46731;SDS011;32477;51.474;5.696;2023-05-10T12:36:13;16.08;;;10.60;;
46731;SDS011;32477;51.474;5.696;2023-05-10T12:38:40;13.13;;;10.05;;
46731;SDS011;32477;51.474;5.696;2023-05-10T12:41:13;11.45;;;8.65;;
46731;SDS011;32477;51.474;5.696;2023-05-10T12:43:40;12.32;;;8.35;;
46731;SDS011;32477;51.474;5.696;2023-05-10T12:48:32;15.48;;;9.20;;
46731;SDS011;32477;51.474;5.696;2023-05-10T12:50:59;12.63;;;9.02;;
46731;SDS011;32477;51.474;5.696;2023-05-10T12:53:25;14.73;;;10.02;;
46731;SDS011;32477;51.474;5.696;2023-05-10T12:55:51;17.20;;;10.45;;
46731;SDS011;32477;51.474;5.696;2023-05-10T12:58:17;14.40;;;10.68;;
46731;SDS011;32477;51.474;5.696;2023-05-10T13:00:42;17.73;;;9.57;;
46731;SDS011;32477;51.474;5.696;2023-05-10T13:03:08;19.10;;;10.52;;
46731;SDS011;32477;51.474;5.696;2023-05-10T13:05:34;15.60;;;10.20;;
46731;SDS011;32477;51.474;5.696;2023-05-10T13:08:00;19.50;;;11.02;;
46731;SDS011;32477;51.474;5.696;2023-05-10T13:10:26;21.63;;;13.15;;
46731;SDS011;32477;51.474;5.696;2023-05-10T13:12:54;22.23;;;13.82;;
46731;SDS011;32477;51.474;5.696;2023-05-10T13:15:20;24.77;;;15.20;;
46731;SDS011;32477;51.474;5.696;2023-05-10T13:17:46;27.50;;;14.45;;
46731;SDS011;32477;51.474;5.696;2023-05-10T13:20:11;21.20;;;13.82;;
46731;SDS011;32477;51.474;5.696;2023-05-10T13:22:37;19.42;;;12.45;;
46731;SDS011;32477;51.474;5.696;2023-05-10T13:25:03;18.33;;;11.68;;
46731;SDS011;32477;51.474;5.696;2023-05-10T13:27:28;19.85;;;11.88;;
46731;SDS011;32477;51.474;5.696;2023-05-10T13:29:54;18.30;;;11.05;;
46731;SDS011;32477;51.474;5.696;2023-05-10T13:32:20;23.67;;;10.65;;
46731;SDS011;32477;51.474;5.696;2023-05-10T13:34:46;13.85;;;9.95;;
46731;SDS011;32477;51.474;5.696;2023-05-10T13:37:11;14.07;;;9.43;;
46731;SDS011;32477;51.474;5.696;2023-05-10T13:39:37;13.98;;;8.70;;
46731;SDS011;32477;51.474;5.696;2023-05-10T13:42:03;13.02;;;8.90;;
46731;SDS011;32477;51.474;5.696;2023-05-10T13:44:29;10.77;;;7.78;;
46731;SDS011;32477;51.474;5.696;2023-05-10T13:46:55;9.82;;;6.95;;
46731;SDS011;32477;51.474;5.696;2023-05-10T13:49:21;7.53;;;5.80;;
46731;SDS011;32477;51.474;5.696;2023-05-10T13:51:47;7.47;;;6.03;;
46731;SDS011;32477;51.474;5.696;2023-05-10T13:54:13;8.88;;;6.22;;
46731;SDS011;32477;51.474;5.696;2023-05-10T13:56:38;9.77;;;6.93;;
46731;SDS011;32477;51.474;5.696;2023-05-10T13:59:05;8.32;;;6.60;;
46731;SDS011;32477;51.474;5.696;2023-05-10T14:01:32;10.10;;;6.88;;
46731;SDS011;32477;51.474;5.696;2023-05-10T14:03:58;10.23;;;7.75;;
46731;SDS011;32477;51.474;5.696;2023-05-10T14:06:24;11.48;;;7.72;;
46731;SDS011;32477;51.474;5.696;2023-05-10T14:08:51;11.82;;;9.25;;
46731;SDS011;32477;51.474;5.696;2023-05-10T14:11:17;10.25;;;8.18;;
46731;SDS011;32477;51.474;5.696;2023-05-10T14:13:43;11.77;;;8.00;;
46731;SDS011;32477;51.474;5.696;2023-05-10T14:16:09;12.88;;;7.80;;
46731;SDS011;32477;51.474;5.696;2023-05-10T14:18:34;12.52;;;8.60;;
46731;SDS011;32477;51.474;5.696;2023-05-10T14:21:01;12.63;;;9.45;;
46731;SDS011;32477;51.474;5.696;2023-05-10T14:23:27;18.20;;;10.93;;
46731;SDS011;32477;51.474;5.696;2023-05-10T14:25:53;17.60;;;11.52;;
46731;SDS011;32477;51.474;5.696;2023-05-10T14:28:19;22.92;;;12.85;;
46731;SDS011;32477;51.474;5.696;2023-05-10T14:30:46;19.75;;;12.25;;
46731;SDS011;32477;51.474;5.696;2023-05-10T14:33:12;125.90;;;62.92;;
46731;SDS011;32477;51.474;5.696;2023-05-10T14:35:38;55.17;;;22.05;;
46731;SDS011;32477;51.474;5.696;2023-05-10T14:38:04;61.83;;;18.45;;
46731;SDS011;32477;51.474;5.696;2023-05-10T14:40:30;31.33;;;16.95;;
46731;SDS011;32477;51.474;5.696;2023-05-10T14:42:56;27.00;;;14.52;;
46731;SDS011;32477;51.474;5.696;2023-05-10T14:45:22;27.92;;;15.20;;
46731;SDS011;32477;51.474;5.696;2023-05-10T14:47:48;24.38;;;13.77;;
46731;SDS011;32477;51.474;5.696;2023-05-10T14:50:14;23.55;;;13.32;;
46731;SDS011;32477;51.474;5.696;2023-05-10T14:52:41;24.90;;;14.45;;